KNFL/NFL METAR and TAF weather

Enter ICAO airport designator
Station Type Date Time Source
KNFL METAR 2019/10/15 08:56 UTC NOAA

KNFL 150856Z AUTO 00000KT 9SM CLR 04/M08 A3015 RMK AO2 SLP173 T00391078 53012


Station Type Date Time Source
KNFL Decoded METAR 2019/10/15 08:56 UTC NOAA

FALLON NAVAL AIR STATION, NV, United States (KNFL) 39-26N 118-41W 1199M
Oct 15, 2019 - 04:56 AM EDT / 2019.10.15 0856 UTC
Wind: Calm:0
Visibility: 9 mile(s):0
Sky conditions: clear
Temperature: 39.0 F (3.9 C)
Dew Point: 18.0 F (-7.8 C)
Relative Humidity: 42%
Pressure (altimeter): 30.15 in. Hg (1020 hPa)
Pressure tendency: 0.04 inches (1.2 hPa) higher than three hours ago
ob: KNFL 150856Z AUTO 00000KT 9SM CLR 04/M08 A3015 RMK AO2 SLP173 T00391078 53012
cycle: 9

Station Type Date Time Source
KNFL TAF 2019/10/15 07:59 UTC NOAA

TAF KNFL 1507/1607 VRB06KT 9999 SKC QNH2997INS AUTOMATED SENSOR METWATCH 1507 TIL 1514 T01/1512Z T23/1523Z FS30149

Example: see airport list